createdAt,value
2019-01-11T00:01:31.214Z,2.60
2019-01-11T00:04:03.234Z,2.80
2019-01-11T00:06:37.428Z,1.97
2019-01-11T00:09:10.334Z,3.37
2019-01-11T00:11:43.401Z,3.93
2019-01-11T00:14:14.692Z,3.37
2019-01-11T00:16:46.450Z,3.57
2019-01-11T00:19:17.643Z,2.57
2019-01-11T00:21:49.332Z,2.90
2019-01-11T00:34:13.219Z,4.60
2019-01-11T00:36:44.447Z,5.13
2019-01-11T00:39:18.556Z,4.30
2019-01-11T00:41:51.599Z,7.03
2019-01-11T00:44:25.552Z,2.77
2019-01-11T00:46:59.126Z,7.90
2019-01-11T00:49:32.557Z,3.77
2019-01-11T00:52:06.831Z,3.20
2019-01-11T00:54:39.779Z,2.20
2019-01-11T00:57:15.269Z,1.93
2019-01-11T00:59:46.478Z,2.50
2019-01-11T01:02:18.518Z,1.97
2019-01-11T01:04:51.718Z,3.50
2019-01-11T01:07:25.581Z,2.60
2019-01-11T01:09:58.747Z,1.70
2019-01-11T01:12:32.735Z,2.17
2019-01-11T01:15:07.165Z,3.63
2019-01-11T01:17:40.558Z,3.73
2019-01-11T01:20:14.838Z,2.83
2019-01-11T01:22:49.383Z,7.00
2019-01-11T01:25:21.701Z,3.40
2019-01-11T01:27:55.280Z,3.63
2019-01-11T01:30:28.696Z,3.53
2019-01-11T01:33:01.681Z,5.03
2019-01-11T01:35:35.695Z,1.93
2019-01-11T01:38:09.580Z,3.80
2019-01-11T01:40:40.882Z,1.90
2019-01-11T01:43:12.830Z,1.70
2019-01-11T01:45:48.443Z,2.30
2019-01-11T01:48:19.828Z,2.10
2019-01-11T01:50:53.826Z,3.30
2019-01-11T01:53:27.007Z,3.17
2019-01-11T01:56:02.514Z,4.60
2019-01-11T01:58:34.973Z,3.13
2019-01-11T02:01:07.983Z,4.40
2019-01-11T02:03:40.708Z,4.83
2019-01-11T02:06:11.927Z,3.83
2019-01-11T02:08:44.065Z,3.30
2019-01-11T02:11:16.256Z,2.83
2019-01-11T02:13:52.915Z,1.80
2019-01-11T02:16:26.959Z,4.03
2019-01-11T02:18:59.976Z,2.10
2019-01-11T02:21:35.267Z,2.30
2019-01-11T02:24:08.000Z,3.23
2019-01-11T02:26:40.376Z,2.60
2019-01-11T02:29:13.503Z,7.83
2019-01-11T02:31:47.852Z,4.20
2019-01-11T02:34:45.157Z,4.33
2019-01-11T02:37:42.290Z,5.37
2019-01-11T02:40:39.461Z,5.50
2019-01-11T02:43:39.804Z,3.97
2019-01-11T02:46:47.515Z,3.00
2019-01-11T02:49:45.058Z,3.10
2019-01-11T02:52:48.170Z,3.60
2019-01-11T02:55:45.534Z,3.67
2019-01-11T02:58:47.799Z,2.73
2019-01-11T03:01:48.858Z,2.80
2019-01-11T03:04:46.217Z,3.03
2019-01-11T03:07:44.791Z,3.13
2019-01-11T03:10:45.322Z,4.57
2019-01-11T03:13:42.390Z,4.50
2019-01-11T03:16:39.693Z,2.50
2019-01-11T03:19:38.452Z,4.87
2019-01-11T03:22:36.150Z,1.37
2019-01-11T03:25:32.948Z,2.83
2019-01-11T03:28:32.908Z,1.60
2019-01-11T03:31:36.763Z,2.00
2019-01-11T03:34:44.838Z,2.17
2019-01-11T03:37:34.157Z,3.37
2019-01-11T03:40:32.576Z,1.60
2019-01-11T03:43:36.121Z,2.20
2019-01-11T03:46:34.835Z,12.27
2019-01-11T03:49:36.841Z,3.10
2019-01-11T03:52:33.242Z,3.10
2019-01-11T03:55:22.681Z,1.93
2019-01-11T03:57:55.455Z,1.90
2019-01-11T04:00:28.441Z,2.10
2019-01-11T04:03:02.162Z,2.83
2019-01-11T04:05:36.047Z,2.00
2019-01-11T04:08:09.477Z,6.20
2019-01-11T04:10:40.732Z,2.57
2019-01-11T04:13:15.006Z,1.93
2019-01-11T04:15:47.520Z,1.73
2019-01-11T04:18:40.468Z,1.20
2019-01-11T04:21:13.589Z,3.97
2019-01-11T04:23:48.972Z,4.80
2019-01-11T04:26:21.250Z,1.60
2019-01-11T04:28:54.691Z,3.10
2019-01-11T04:31:28.213Z,5.37
2019-01-11T04:34:03.735Z,2.80
2019-01-11T04:36:35.616Z,2.63
2019-01-11T04:39:09.665Z,1.60
2019-01-11T04:41:40.934Z,2.93
2019-01-11T04:44:14.588Z,2.20
2019-01-11T04:46:47.560Z,2.03
2019-01-11T04:49:18.752Z,2.67
2019-01-11T04:51:52.634Z,2.97
2019-01-11T04:54:27.415Z,2.80
2019-01-11T04:56:59.647Z,2.40
2019-01-11T04:59:33.700Z,1.43
2019-01-11T05:02:07.583Z,2.70
2019-01-11T05:04:41.513Z,2.80
2019-01-11T05:07:13.645Z,1.50
2019-01-11T05:09:47.663Z,1.67
2019-01-11T05:12:20.648Z,1.60
2019-01-11T05:14:51.877Z,2.17
2019-01-11T05:17:25.386Z,3.47
2019-01-11T05:19:58.837Z,1.27
2019-01-11T05:22:32.690Z,2.90
2019-01-11T05:25:07.559Z,2.10
2019-01-11T05:27:39.706Z,2.07
2019-01-11T05:30:18.451Z,2.03
2019-01-11T05:32:50.831Z,2.13
2019-01-11T05:35:26.532Z,2.20
2019-01-11T05:38:01.280Z,3.67
2019-01-11T05:40:32.544Z,1.97
2019-01-11T05:43:05.979Z,2.67
2019-01-11T05:45:41.500Z,3.57
2019-01-11T05:48:13.924Z,2.40
2019-01-11T05:50:47.773Z,1.80
2019-01-11T05:53:23.228Z,6.13
2019-01-11T05:55:57.356Z,9.30
2019-01-11T05:58:34.526Z,2.00
2019-01-11T06:01:07.992Z,2.40
2019-01-11T06:03:40.751Z,1.60
2019-01-11T06:06:13.177Z,2.50
2019-01-11T06:08:47.251Z,2.50
2019-01-11T06:11:23.017Z,2.10
2019-01-11T06:17:10.533Z,1.53
2019-01-11T06:19:41.737Z,1.63
2019-01-11T06:22:13.901Z,2.50
2019-01-11T06:24:47.074Z,3.63
2019-01-11T06:27:20.896Z,1.90
2019-01-11T06:29:52.102Z,2.30
2019-01-11T06:32:26.714Z,2.40
2019-01-11T06:34:59.027Z,2.73
2019-01-11T06:37:34.538Z,1.63
2019-01-11T06:40:07.572Z,1.53
2019-01-11T06:42:40.864Z,1.77
2019-01-11T06:45:14.274Z,1.63
2019-01-11T06:47:47.243Z,1.77
2019-01-11T06:50:19.068Z,1.33
2019-01-11T06:52:53.442Z,1.50
2019-01-11T06:55:27.267Z,2.30
2019-01-11T06:58:00.038Z,2.57
2019-01-11T07:00:33.994Z,2.40
2019-01-11T07:03:05.585Z,1.40
2019-01-11T07:05:38.981Z,2.00
2019-01-11T07:08:12.457Z,2.63
2019-01-11T07:10:46.254Z,14.60
2019-01-11T07:13:20.819Z,7.57
2019-01-11T07:15:53.235Z,4.57
2019-01-11T07:18:26.274Z,6.27
2019-01-11T07:20:57.494Z,4.80
2019-01-11T07:23:30.347Z,13.40
2019-01-11T07:26:01.556Z,30.10
2019-01-11T07:28:34.408Z,36.43
2019-01-11T07:31:11.963Z,25.37
2019-01-11T07:33:49.067Z,26.27
2019-01-11T07:36:35.128Z,8.77
2019-01-11T07:39:17.909Z,4.80
2019-01-11T07:41:50.410Z,2.00
2019-01-11T07:44:21.677Z,3.40
2019-01-11T07:46:55.400Z,1.90
2019-01-11T07:49:29.514Z,5.33
2019-01-11T07:52:02.485Z,6.60
2019-01-11T07:54:38.403Z,7.60
2019-01-11T07:57:10.314Z,7.30
2019-01-11T07:59:41.534Z,10.50
2019-01-11T08:02:15.668Z,8.90
2019-01-11T08:04:49.807Z,7.60
2019-01-11T08:07:22.463Z,6.90
2019-01-11T08:09:55.285Z,7.83
2019-01-11T08:12:29.448Z,10.03
2019-01-11T08:15:02.784Z,10.30
2019-01-11T08:17:36.875Z,14.47
2019-01-11T08:20:11.647Z,5.97
2019-01-11T08:22:44.497Z,6.23
2019-01-11T08:25:17.316Z,4.37
2019-01-11T08:27:50.741Z,6.83
2019-01-11T08:30:23.564Z,8.20
2019-01-11T08:32:59.053Z,7.30
2019-01-11T08:35:32.345Z,8.37
2019-01-11T08:38:04.452Z,7.40
2019-01-11T08:40:35.632Z,6.50
2019-01-11T08:43:09.063Z,6.10
2019-01-11T08:45:41.082Z,7.10
2019-01-11T08:48:15.381Z,8.43
2019-01-11T08:50:47.805Z,8.27
2019-01-11T08:53:21.326Z,11.00
2019-01-11T08:55:54.153Z,6.13
2019-01-11T08:58:29.385Z,7.57
2019-01-11T09:01:02.743Z,7.13
2019-01-11T09:03:36.931Z,5.27
2019-01-11T09:06:09.732Z,5.00
2019-01-11T09:08:43.206Z,3.53
2019-01-11T09:11:20.170Z,4.40
2019-01-11T09:13:53.735Z,2.63
2019-01-11T09:16:27.734Z,4.43
2019-01-11T09:19:03.186Z,4.53
2019-01-11T09:21:34.731Z,2.57
2019-01-11T09:24:07.872Z,4.30
2019-01-11T09:26:40.810Z,2.30
2019-01-11T09:29:12.366Z,2.60
2019-01-11T09:31:44.977Z,5.60
2019-01-11T09:34:18.699Z,4.30
2019-01-11T09:36:51.916Z,2.73
2019-01-11T09:39:27.392Z,3.60
2019-01-11T09:41:58.737Z,2.30
2019-01-11T09:44:30.971Z,2.87
2019-01-11T09:47:02.995Z,2.90
2019-01-11T09:49:36.913Z,2.63
2019-01-11T09:52:12.355Z,2.17
2019-01-11T09:54:46.062Z,5.33
2019-01-11T09:57:18.465Z,2.57
2019-01-11T09:59:51.107Z,8.43
2019-01-11T10:02:39.114Z,5.00
2019-01-11T10:05:11.511Z,4.80
2019-01-11T10:07:45.127Z,3.87
2019-01-11T10:16:32.405Z,4.03
2019-01-11T10:19:05.871Z,5.60
2019-01-11T10:21:39.886Z,3.37
2019-01-11T10:24:15.414Z,3.87
2019-01-11T10:26:47.786Z,4.50
2019-01-11T10:29:20.595Z,7.20
2019-01-11T10:31:51.806Z,4.77
2019-01-11T10:34:27.615Z,4.00
2019-01-11T10:36:58.882Z,3.70
2019-01-11T10:39:32.980Z,3.77
2019-01-11T10:42:05.968Z,6.43
2019-01-11T10:44:37.152Z,5.00
2019-01-11T10:47:10.627Z,4.40
2019-01-11T10:49:41.930Z,4.87
2019-01-11T10:52:16.196Z,5.60
2019-01-11T10:54:48.033Z,4.80
2019-01-11T10:57:20.832Z,6.03
2019-01-11T10:59:54.772Z,5.63
2019-01-11T11:02:26.613Z,5.70
2019-01-11T11:05:00.197Z,5.23
2019-01-11T11:07:33.463Z,5.13
2019-01-11T11:10:10.859Z,5.80
2019-01-11T11:12:45.538Z,7.43
2019-01-11T11:15:20.380Z,7.47
2019-01-11T11:17:54.342Z,6.83
2019-01-11T11:20:27.035Z,4.80
2019-01-11T11:23:01.122Z,6.83
2019-01-11T11:25:32.416Z,8.67
2019-01-11T11:28:03.634Z,7.80
2019-01-11T11:30:37.623Z,7.17
2019-01-11T11:33:11.869Z,7.43
2019-01-11T11:35:45.266Z,8.43
2019-01-11T11:38:17.117Z,7.40
2019-01-11T11:40:49.629Z,5.13
2019-01-11T11:43:22.579Z,7.80
2019-01-11T11:45:56.083Z,6.80
2019-01-11T11:48:29.076Z,13.93
2019-01-11T11:51:00.288Z,5.20
2019-01-11T11:53:33.326Z,6.60
2019-01-11T11:56:05.443Z,4.43
2019-01-11T11:58:38.084Z,7.43
2019-01-11T12:01:12.774Z,10.60
2019-01-11T12:03:45.298Z,6.00
2019-01-11T12:06:19.149Z,5.57
2019-01-11T12:08:52.314Z,7.57
2019-01-11T12:11:25.135Z,8.23
2019-01-11T12:13:58.996Z,4.93
2019-01-11T12:16:30.296Z,7.20
2019-01-11T12:19:01.529Z,8.40
2019-01-11T12:21:35.248Z,10.43
2019-01-11T12:24:10.105Z,9.03
2019-01-11T12:26:41.475Z,6.17
2019-01-11T12:29:13.286Z,5.80
2019-01-11T12:31:47.332Z,6.73
2019-01-11T12:34:21.084Z,6.67
2019-01-11T12:36:54.563Z,6.70
2019-01-11T12:39:28.320Z,5.00
2019-01-11T12:42:02.419Z,5.70
2019-01-11T12:44:36.351Z,6.97
2019-01-11T12:47:09.561Z,3.70
2019-01-11T12:49:43.011Z,6.63
2019-01-11T12:52:18.002Z,5.33
2019-01-11T12:54:50.325Z,5.23
2019-01-11T12:57:23.449Z,4.87
2019-01-11T12:59:57.441Z,8.50
2019-01-11T13:02:32.333Z,4.57
2019-01-11T13:05:06.317Z,4.30
2019-01-11T13:07:41.217Z,4.63
2019-01-11T13:10:17.864Z,6.03
2019-01-11T13:12:51.616Z,5.50
2019-01-11T13:15:25.660Z,4.90
2019-01-11T13:17:58.750Z,4.50
2019-01-11T13:20:32.560Z,6.10
2019-01-11T13:23:06.614Z,14.27
2019-01-11T13:25:40.503Z,5.73
2019-01-11T13:28:14.630Z,4.03
2019-01-11T13:30:47.581Z,30.13
2019-01-11T13:33:20.562Z,8.87
2019-01-11T13:35:51.797Z,5.50
2019-01-11T13:38:25.640Z,4.97
2019-01-11T13:40:59.660Z,7.07
2019-01-11T13:43:30.842Z,5.53
2019-01-11T13:46:04.556Z,6.23
2019-01-11T13:48:38.581Z,5.03
2019-01-11T13:51:11.794Z,4.30
2019-01-11T13:53:47.226Z,4.53
2019-01-11T13:56:21.042Z,4.63
2019-01-11T13:58:52.759Z,6.10
2019-01-11T14:01:25.761Z,2.83
2019-01-11T14:03:59.904Z,4.30
2019-01-11T14:06:32.724Z,4.00
2019-01-11T14:09:08.842Z,3.60
2019-01-11T14:11:41.539Z,3.30
2019-01-11T14:14:13.704Z,5.23
2019-01-11T14:16:47.643Z,5.10
2019-01-11T14:19:20.868Z,5.37
2019-01-11T14:21:54.880Z,4.17
2019-01-11T14:24:29.521Z,5.87
2019-01-11T14:27:03.578Z,5.70
2019-01-11T14:29:35.820Z,3.60
2019-01-11T14:32:11.022Z,3.30
2019-01-11T14:34:42.206Z,4.33
2019-01-11T14:37:14.018Z,6.20
2019-01-11T14:39:48.008Z,10.00
2019-01-11T14:42:23.534Z,5.90
2019-01-11T14:44:55.605Z,4.27
2019-01-11T14:47:29.048Z,4.30
2019-01-11T14:50:02.915Z,4.90
2019-01-11T14:52:36.904Z,4.53
2019-01-11T14:55:11.234Z,8.10
2019-01-11T14:57:42.454Z,4.10
2019-01-11T15:00:18.469Z,4.73
2019-01-11T15:02:53.667Z,5.63
2019-01-11T15:05:25.027Z,5.80
2019-01-11T15:07:58.953Z,6.50
2019-01-11T15:10:32.758Z,4.93
2019-01-11T15:13:25.826Z,7.37
2019-01-11T15:15:59.697Z,7.10
2019-01-11T15:18:30.986Z,6.97
2019-01-11T15:21:03.664Z,5.13
2019-01-11T15:23:35.180Z,4.93
2019-01-11T15:26:10.643Z,6.07
2019-01-11T15:28:42.008Z,6.50
2019-01-11T15:31:19.779Z,6.57
2019-01-11T15:33:51.295Z,7.47
2019-01-11T15:36:23.237Z,5.50
2019-01-11T15:38:57.070Z,6.50
2019-01-11T15:41:31.328Z,6.60
2019-01-11T15:44:04.667Z,6.70
2019-01-11T15:46:38.396Z,6.77
2019-01-11T15:49:11.336Z,7.40
2019-01-11T15:51:42.630Z,8.40
2019-01-11T15:54:16.238Z,8.53
2019-01-11T15:56:50.288Z,8.70
2019-01-11T15:59:25.032Z,7.37
2019-01-11T16:01:57.258Z,9.00
2019-01-11T16:04:31.110Z,9.00
2019-01-11T16:07:04.039Z,9.17
2019-01-11T16:10:08.585Z,9.80
2019-01-11T16:13:07.748Z,10.90
2019-01-11T16:16:08.238Z,13.83
2019-01-11T16:18:42.207Z,8.33
2019-01-11T16:21:14.302Z,15.63
2019-01-11T16:23:49.460Z,10.77
2019-01-11T16:26:21.414Z,10.30
2019-01-11T16:28:54.479Z,12.10
2019-01-11T16:31:26.783Z,8.87
2019-01-11T16:33:59.362Z,9.77
2019-01-11T16:36:32.383Z,9.00
2019-01-11T16:39:08.879Z,6.90
2019-01-11T16:41:40.108Z,8.13
2019-01-11T16:44:13.484Z,6.47
2019-01-11T16:46:45.812Z,7.10
2019-01-11T16:49:18.429Z,10.20
2019-01-11T16:55:16.236Z,8.37
2019-01-11T16:57:47.647Z,8.10
2019-01-11T17:00:23.162Z,9.50
2019-01-11T17:02:54.459Z,7.87
2019-01-11T17:05:29.423Z,9.83
2019-01-11T17:08:04.546Z,7.93
2019-01-11T17:10:36.715Z,9.30
2019-01-11T17:13:11.132Z,8.47
2019-01-11T17:15:42.344Z,9.77
2019-01-11T17:18:14.761Z,8.93
2019-01-11T17:20:48.777Z,10.63
2019-01-11T17:23:20.616Z,11.43
2019-01-11T17:25:52.631Z,7.73
2019-01-11T17:28:25.622Z,9.13
2019-01-11T17:30:59.614Z,9.13
2019-01-11T17:33:33.597Z,13.20
2019-01-11T17:36:08.381Z,12.80
2019-01-11T17:38:40.561Z,10.83
2019-01-11T17:41:13.741Z,8.57
2019-01-11T17:43:46.647Z,8.10
2019-01-11T17:46:21.011Z,8.03
2019-01-11T17:48:55.526Z,11.07
2019-01-11T17:51:28.779Z,9.10
2019-01-11T17:54:00.004Z,7.87
2019-01-11T17:56:32.735Z,8.07
2019-01-11T17:59:06.715Z,8.80
2019-01-11T18:01:37.904Z,7.40
2019-01-11T18:04:11.715Z,9.70
2019-01-11T18:06:44.924Z,9.13
2019-01-11T18:09:18.800Z,8.53
2019-01-11T18:11:54.277Z,7.33
2019-01-11T18:14:28.197Z,7.13
2019-01-11T18:16:59.839Z,8.33
2019-01-11T18:19:33.823Z,6.50
2019-01-11T18:22:09.637Z,7.07
2019-01-11T18:24:42.036Z,6.47
2019-01-11T18:27:15.256Z,7.53
2019-01-11T18:29:47.844Z,8.80
2019-01-11T18:32:21.824Z,10.57
2019-01-11T18:34:53.924Z,8.70
2019-01-11T18:37:26.686Z,5.80
2019-01-11T18:40:00.345Z,6.50
2019-01-11T18:42:33.086Z,8.07
2019-01-11T18:45:07.358Z,6.40
2019-01-11T18:47:40.996Z,4.70
2019-01-11T18:50:17.170Z,7.60
2019-01-11T18:52:52.696Z,7.00
2019-01-11T18:55:25.023Z,6.10
2019-01-11T18:57:59.068Z,5.97
2019-01-11T19:00:32.057Z,9.47
2019-01-11T19:03:03.282Z,7.40
2019-01-11T19:05:37.867Z,9.60
2019-01-11T19:08:12.777Z,8.60
2019-01-11T19:10:45.119Z,6.30
2019-01-11T19:13:20.526Z,6.57
2019-01-11T19:15:51.744Z,8.00
2019-01-11T19:18:23.378Z,7.30
2019-01-11T19:20:56.239Z,9.73
2019-01-11T19:23:30.198Z,5.90
2019-01-11T19:26:01.392Z,6.83
2019-01-11T19:28:35.410Z,6.73
2019-01-11T19:34:34.824Z,8.50
2019-01-11T19:37:07.117Z,6.97
2019-01-11T19:39:40.378Z,7.83
2019-01-11T19:42:14.170Z,7.00
2019-01-11T19:44:48.871Z,6.80
2019-01-11T19:47:22.870Z,6.17
2019-01-11T19:49:57.497Z,8.00
2019-01-11T19:52:31.198Z,5.97
2019-01-11T19:56:02.295Z,7.43
2019-01-11T19:58:33.550Z,7.60
2019-01-11T20:01:08.382Z,6.63
2019-01-11T20:03:40.466Z,7.07
2019-01-11T20:06:15.432Z,12.13
2019-01-11T20:08:49.378Z,14.50
2019-01-11T20:11:24.317Z,11.73
2019-01-11T20:13:58.456Z,9.30
2019-01-11T20:16:33.458Z,5.87
2019-01-11T20:19:06.305Z,7.50
2019-01-11T20:21:39.504Z,10.57
2019-01-11T20:24:10.719Z,7.03
2019-01-11T20:26:41.989Z,8.90
2019-01-11T20:29:15.389Z,7.53
2019-01-11T20:31:48.171Z,7.47
2019-01-11T20:34:20.539Z,7.77
2019-01-11T20:37:07.064Z,9.13
2019-01-11T20:39:41.174Z,8.47
2019-01-11T20:42:13.736Z,8.83
2019-01-11T20:44:47.569Z,9.30
2019-01-11T20:47:22.640Z,6.43
2019-01-11T20:49:55.389Z,8.90
2019-01-11T20:52:28.788Z,7.20
2019-01-11T20:55:04.851Z,9.07
2019-01-11T20:57:39.807Z,14.83
2019-01-11T21:00:16.050Z,8.37
2019-01-11T21:02:49.827Z,8.10
2019-01-11T21:05:24.166Z,8.30
2019-01-11T21:08:18.106Z,10.43
2019-01-11T21:10:52.567Z,10.07
2019-01-11T21:13:23.993Z,10.00
2019-01-11T21:15:57.671Z,7.77
2019-01-11T21:18:31.672Z,6.30
2019-01-11T21:21:02.928Z,9.50
2019-01-11T21:23:35.680Z,8.93
2019-01-11T21:26:06.872Z,9.00
2019-01-11T21:28:40.720Z,8.23
2019-01-11T21:31:23.077Z,8.47
2019-01-11T21:33:54.865Z,7.07
2019-01-11T21:36:28.850Z,11.33
2019-01-11T21:39:01.689Z,8.50
2019-01-11T21:41:40.293Z,8.30
2019-01-11T21:44:11.864Z,8.87
2019-01-11T21:46:45.763Z,7.90
2019-01-11T21:49:18.939Z,7.43
2019-01-11T21:51:57.982Z,10.63
2019-01-11T21:54:29.936Z,8.37
2019-01-11T21:57:02.868Z,7.10
2019-01-11T21:59:44.335Z,7.60
2019-01-11T22:02:17.038Z,7.70
2019-01-11T22:04:50.913Z,7.53
2019-01-11T22:07:29.896Z,7.07
2019-01-11T22:10:12.190Z,6.67
2019-01-11T22:12:47.589Z,6.60
2019-01-11T22:15:25.640Z,7.73
2019-01-11T22:18:02.666Z,9.20
2019-01-11T22:20:36.007Z,6.40
2019-01-11T22:23:16.038Z,7.90
2019-01-11T22:25:51.665Z,7.70
2019-01-11T22:28:25.855Z,6.83
2019-01-11T22:31:06.523Z,5.53
2019-01-11T22:33:40.121Z,6.00
2019-01-11T22:36:15.610Z,5.47
2019-01-11T22:38:50.138Z,5.17
2019-01-11T22:41:33.988Z,6.43
2019-01-11T22:44:14.298Z,3.93
2019-01-11T22:46:52.284Z,6.00
2019-01-11T22:49:31.880Z,4.87
2019-01-11T22:52:11.961Z,4.10
2019-01-11T22:54:52.004Z,4.50
2019-01-11T22:57:24.953Z,6.00
2019-01-11T22:59:58.970Z,6.53
2019-01-11T23:02:53.261Z,4.73
2019-01-11T23:05:27.187Z,5.60
2019-01-11T23:08:06.502Z,9.13
2019-01-11T23:11:33.314Z,5.57
2019-01-11T23:14:10.916Z,3.87
2019-01-11T23:16:53.465Z,4.30
2019-01-11T23:19:27.187Z,3.83
2019-01-11T23:22:00.164Z,4.07
2019-01-11T23:24:35.633Z,3.37
2019-01-11T23:27:15.319Z,3.43
2019-01-11T23:29:48.286Z,3.20
2019-01-11T23:32:21.248Z,2.93
2019-01-11T23:35:03.275Z,4.30
2019-01-11T23:37:37.350Z,3.47
2019-01-11T23:40:13.204Z,3.63
2019-01-11T23:42:45.303Z,2.80
2019-01-11T23:45:25.707Z,3.50
2019-01-11T23:48:04.341Z,2.70
2019-01-11T23:50:35.600Z,3.33
2019-01-11T23:53:06.947Z,3.00
2019-01-11T23:55:41.543Z,2.53
2019-01-11T23:58:14.894Z,3.27
